Andrews, Texas
Current Conditions -  °F | °C
As of 12:55 PM on Sunday 23 Nov 2014 (Local Time) from KE11 Reporting Station
Clear Clear  
Wind Chill: 67°   Ceiling: Unl
Heat Index: 67°   Visibility: 10mi
Dew Point: 24°   Wind: 25mph
Humidity: 19%   Direction: 310°NW
Pressure: 29.68"   Gusts: 38mph
Location:  32.32°N, 102.54°W
Report Text: KE11 231855Z AUTO 31022G33KT 10SM CLR 20/M04 A2968 RMK AO2 T01971044
Loading
Personal Weather Stations






























Interactive Weather Map New forecast layout! Learn more

10-Day Weather Forecast

Advertisements
Track Severe Weather on mobile